Mesita, Colorado
Current Conditions -  °F | °C
As of 10:52 PM on Friday 24 Oct 2014 (Local Time) from KALS Reporting Station
Clear Clear  
Wind Chill:   Ceiling: Unl
Heat Index:   Visibility: 10mi
Dew Point: -4°   Wind: 8mph
Humidity: 44%   Direction: 360°N
Pressure: 30.4"   Gusts: NA
Location:  37.0838°N, 105.58°W
Report Text: KALS 250452Z AUTO 36007KT 10SM CLR 08/M04 A3040 RMK AO2 SLP244 T00781039
Loading
Personal Weather Stations






























Interactive Weather Map
Tropical Storm Tracking
New forecast layout! Learn more

10-Day Weather Forecast

Advertisements
Track Severe Weather on mobile